Time;durP1;ratioP1;P1;durP2;ratioP2;P2;SDS_P1;SDS_P2;PMS_P1;PMS_P2;Temp;Humidity;BMP_temperature;BMP_pressure;BME280_temperature;BME280_humidity;BME280_pressure;Samples;Min_cycle;Max_cycle;Signal;HPM_P1;HPM_P2
2023/03/31 00:00:53;;;;;;;;;;;;;;;15.23;55.61;99454.06;4967863;28;7191;-86
2023/03/31 00:03:22;;;;;;;;;;;;;;;15.21;56.09;99448.03;4956536;28;8554;-86
2023/03/31 00:05:52;;;;;;;;;;;;;;;15.20;56.47;99438.56;4956385;28;8804;-86
2023/03/31 00:08:18;;;;;;;;;;;;;;;15.18;56.12;99437.66;4952468;28;6986;-88
2023/03/31 00:10:46;;;;;;;;;;;;;;;15.20;56.76;99430.81;4933685;28;8471;-88
2023/03/31 00:13:13;;;;;;;;;;;;;;;15.21;56.17;99428.25;4932495;28;8446;-86
2023/03/31 00:15:39;;;;;;;;;;;;;;;15.20;56.40;99417.91;4954529;28;8772;-86
2023/03/31 00:18:05;;;;;;;;;;;;;;;15.20;56.34;99420.50;4940408;28;8396;-86
2023/03/31 00:20:32;;;;;;;;;;;;;;;15.18;56.73;99411.88;4949114;28;6955;-88
2023/03/31 00:23:00;;;;;;;;;;;;;;;15.14;56.71;99406.63;4940855;28;7206;-87
2023/03/31 00:25:26;;;;;;;;;;;;;;;15.11;57.08;99404.03;4962722;28;6805;-87
2023/03/31 00:27:52;;;;;;;;;;;;;;;15.13;57.70;99397.16;4947788;28;7183;-86
2023/03/31 00:30:19;;;;;;;;;;;;;;;15.16;57.16;99393.75;4967033;28;8762;-86
2023/03/31 00:32:45;;;;;;;;;;;;;;;15.19;57.15;99395.53;4952832;28;8435;-86
2023/03/31 00:35:11;;;;;;;;;;;;;;;15.26;57.07;99394.75;4957637;28;8401;-87
2023/03/31 00:37:37;;;;;;;;;;;;;;;15.31;57.08;99389.66;4966514;28;8386;-86
2023/03/31 00:40:08;;;;;;;;;;;;;;;15.33;57.68;99365.56;4945388;28;7456;-85
2023/03/31 00:42:40;;;;;;;;;;;;;;;15.40;57.56;99351.00;4952835;28;8524;-86
2023/03/31 00:45:29;;;;;;;;;;;;;;;15.39;57.65;99359.63;4951183;28;8506;-86
2023/03/31 00:48:17;;;;;;;;;;;;;;;15.34;57.49;99345.81;4967210;28;7365;-86
2023/03/31 00:50:55;;;;;;;;;;;;;;;15.30;57.80;99344.91;4939213;28;8466;-86
2023/03/31 00:53:27;;;;;;;;;;;;;;;15.25;57.52;99342.25;4952150;28;8343;-87
2023/03/31 00:56:00;;;;;;;;;;;;;;;15.23;58.03;99325.00;4943841;28;7142;-87
2023/03/31 00:58:32;;;;;;;;;;;;;;;15.23;58.28;99319.84;4963775;28;7198;-86
2023/03/31 01:01:02;;;;;;;;;;;;;;;15.24;58.50;99324.16;4935314;28;7196;-87
2023/03/31 01:03:32;;;;;;;;;;;;;;;15.27;57.94;99322.50;4922393;28;7012;-86
2023/03/31 01:06:04;;;;;;;;;;;;;;;15.32;57.94;99317.38;4953821;28;6968;-86
2023/03/31 01:08:35;;;;;;;;;;;;;;;15.37;58.56;99325.19;4933363;28;8464;-86
2023/03/31 01:11:06;;;;;;;;;;;;;;;15.38;58.16;99314.88;4949191;28;6822;-86
2023/03/31 01:13:37;;;;;;;;;;;;;;;15.36;58.32;99314.00;4948882;28;8475;-86
2023/03/31 01:16:02;;;;;;;;;;;;;;;15.35;58.00;99312.25;4956004;28;7292;-86
2023/03/31 01:18:33;;;;;;;;;;;;;;;15.32;57.72;99312.22;4955117;28;6794;-87
2023/03/31 01:21:29;;;;;;;;;;;;;;;15.26;57.90;99294.94;4968109;28;7214;-86
2023/03/31 01:24:48;;;;;;;;;;;;;;;15.23;58.63;99304.38;4972373;28;7345;-87
2023/03/31 01:27:32;;;;;;;;;;;;;;;15.14;58.72;99297.41;4970407;28;7246;-87
2023/03/31 01:31:04;;;;;;;;;;;;;;;15.12;59.30;99288.78;4951620;28;7132;-88
2023/03/31 01:34:19;;;;;;;;;;;;;;;15.09;59.52;99291.31;4902996;29;11569;-85
2023/03/31 01:37:20;;;;;;;;;;;;;;;15.06;59.67;99289.53;4918096;29;7064;-87
2023/03/31 01:39:57;;;;;;;;;;;;;;;15.00;59.43;99284.31;4963339;28;9017;-86
2023/03/31 01:43:25;;;;;;;;;;;;;;;14.97;59.52;99268.81;4948172;28;6820;-87
2023/03/31 01:46:32;;;;;;;;;;;;;;;14.96;60.04;99274.81;4968881;28;7215;-87
2023/03/31 01:49:11;;;;;;;;;;;;;;;14.93;60.22;99267.03;4941047;28;7049;-87
2023/03/31 01:52:00;;;;;;;;;;;;;;;14.93;60.21;99257.59;4953948;28;7240;-88
2023/03/31 01:54:54;;;;;;;;;;;;;;;14.92;59.69;99258.44;4946886;28;7189;-87
2023/03/31 01:57:59;;;;;;;;;;;;;;;14.93;59.98;99241.25;4938304;28;8442;-87
2023/03/31 02:00:33;;;;;;;;;;;;;;;14.92;59.76;99234.34;4950884;28;7049;-87
2023/03/31 02:03:16;;;;;;;;;;;;;;;14.91;60.10;99223.16;4945215;28;8765;-87
2023/03/31 02:05:56;;;;;;;;;;;;;;;14.90;59.87;99216.25;4928339;28;8507;-87
2023/03/31 02:08:42;;;;;;;;;;;;;;;14.91;59.79;99211.97;4959888;28;7206;-87
2023/03/31 02:11:09;;;;;;;;;;;;;;;14.89;60.58;99200.78;4934744;28;7346;-87
2023/03/31 02:13:40;;;;;;;;;;;;;;;14.88;59.89;99184.44;4959425;28;6979;-87
2023/03/31 02:16:16;;;;;;;;;;;;;;;14.89;60.36;99182.72;4928457;28;8547;-88
2023/03/31 02:18:47;;;;;;;;;;;;;;;14.85;59.57;99171.50;4916795;28;7079;-87
2023/03/31 02:21:15;;;;;;;;;;;;;;;14.87;60.38;99172.38;4940195;28;9344;-88
2023/03/31 02:23:44;;;;;;;;;;;;;;;14.87;60.07;99164.66;4941864;28;7273;-87
2023/03/31 02:26:26;;;;;;;;;;;;;;;14.84;59.70;99152.56;4925193;28;8443;-86
2023/03/31 02:28:52;;;;;;;;;;;;;;;14.84;60.04;99138.84;4935891;28;8456;-86
2023/03/31 02:31:51;;;;;;;;;;;;;;;14.81;60.04;99129.34;4941377;28;6788;-87
2023/03/31 02:34:17;;;;;;;;;;;;;;;14.80;59.53;99117.28;4946460;28;7181;-88
2023/03/31 02:36:44;;;;;;;;;;;;;;;14.80;59.60;99106.97;4932543;28;6981;-88
2023/03/31 02:39:27;;;;;;;;;;;;;;;14.78;60.23;99088.06;4932500;28;7048;-88
2023/03/31 02:41:53;;;;;;;;;;;;;;;14.76;59.95;99087.16;4932881;28;8740;-87
2023/03/31 02:44:19;;;;;;;;;;;;;;;14.76;59.91;99081.13;4938296;28;8765;-88
2023/03/31 02:46:47;;;;;;;;;;;;;;;14.78;60.02;99072.56;4927890;28;8438;-88
2023/03/31 02:49:15;;;;;;;;;;;;;;;14.81;59.25;99066.56;4958561;28;6975;-88
2023/03/31 02:52:07;;;;;;;;;;;;;;;14.84;59.63;99051.13;4929281;28;8439;-88
2023/03/31 02:55:26;;;;;;;;;;;;;;;14.84;59.70;99033.91;4950825;28;7891;-88
2023/03/31 02:58:33;;;;;;;;;;;;;;;14.82;59.81;99027.91;4947236;28;8955;-88
2023/03/31 03:01:32;;;;;;;;;;;;;;;14.85;59.48;99027.06;4960627;28;7072;-88
2023/03/31 03:04:16;;;;;;;;;;;;;;;14.86;59.24;99029.63;4942931;28;8484;-88
2023/03/31 03:07:04;;;;;;;;;;;;;;;14.89;59.38;99017.63;4944915;28;7184;-88
2023/03/31 03:10:29;;;;;;;;;;;;;;;14.93;59.37;99021.97;4946502;28;6990;-88
2023/03/31 03:13:48;;;;;;;;;;;;;;;14.92;59.14;99007.34;4945726;28;7384;-88
2023/03/31 03:16:40;;;;;;;;;;;;;;;14.86;58.72;99011.56;4947172;28;7226;-88
2023/03/31 03:19:07;;;;;;;;;;;;;;;14.82;59.03;99015.00;4949294;28;6938;-88
2023/03/31 03:21:34;;;;;;;;;;;;;;;14.81;58.87;99002.97;4948971;28;6997;-88
2023/03/31 03:24:00;;;;;;;;;;;;;;;14.81;58.28;98991.75;4949610;28;8477;-88
2023/03/31 03:26:27;;;;;;;;;;;;;;;14.79;59.03;98975.41;4933749;28;6970;-87
2023/03/31 03:28:56;;;;;;;;;;;;;;;14.76;59.22;98970.25;4955186;28;6976;-87
2023/03/31 03:31:24;;;;;;;;;;;;;;;14.75;58.65;98978.84;4949927;28;6957;-88
2023/03/31 03:33:52;;;;;;;;;;;;;;;14.75;58.77;98979.69;4925360;28;8611;-87
2023/03/31 03:36:18;;;;;;;;;;;;;;;14.76;58.42;98984.00;4944235;28;7255;-88
2023/03/31 03:38:44;;;;;;;;;;;;;;;14.76;58.46;98976.25;4954047;28;7201;-87
2023/03/31 03:41:10;;;;;;;;;;;;;;;14.79;58.10;98965.97;4938509;28;8386;-88
2023/03/31 03:43:36;;;;;;;;;;;;;;;14.81;58.01;98947.91;4939522;28;8400;-88
2023/03/31 03:46:01;;;;;;;;;;;;;;;14.83;57.65;98952.25;4940984;28;8587;-88
2023/03/31 03:48:27;;;;;;;;;;;;;;;14.86;57.65;98946.25;4949711;28;7141;-87
2023/03/31 03:50:54;;;;;;;;;;;;;;;14.78;57.76;98928.16;4951238;28;7187;-87
2023/03/31 03:53:20;;;;;;;;;;;;;;;14.69;57.67;98912.56;4952113;28;7275;-88
2023/03/31 03:55:48;;;;;;;;;;;;;;;14.58;57.31;98892.72;4931767;28;8418;-87
2023/03/31 03:58:16;;;;;;;;;;;;;;;14.50;58.21;98885.78;4954827;28;7222;-87
2023/03/31 04:00:41;;;;;;;;;;;;;;;14.42;57.96;98872.84;4935508;28;8425;-88
2023/03/31 04:03:07;;;;;;;;;;;;;;;14.39;58.45;98870.22;4938082;28;7166;-87
2023/03/31 04:05:33;;;;;;;;;;;;;;;14.41;58.14;98853.06;4925023;28;8442;-87
2023/03/31 04:07:59;;;;;;;;;;;;;;;14.46;58.10;98851.38;4945232;28;6955;-87
2023/03/31 04:10:25;;;;;;;;;;;;;;;14.49;57.81;98838.53;4925644;28;6967;-87
2023/03/31 04:12:51;;;;;;;;;;;;;;;14.53;57.45;98845.41;4949559;28;8419;-87
2023/03/31 04:15:16;;;;;;;;;;;;;;;14.53;57.55;98832.53;4952535;28;7517;-87
2023/03/31 04:17:49;;;;;;;;;;;;;;;14.51;57.96;98836.81;4929832;28;8632;-88
2023/03/31 04:20:16;;;;;;;;;;;;;;;14.54;57.07;98836.81;4927872;28;8489;-88
2023/03/31 04:22:45;;;;;;;;;;;;;;;14.54;57.50;98807.63;4945098;28;7271;-87
2023/03/31 04:25:16;;;;;;;;;;;;;;;14.53;58.07;98800.72;4946022;28;7240;-87
2023/03/31 04:27:49;;;;;;;;;;;;;;;14.54;57.72;98798.16;4923122;28;8984;-88
2023/03/31 04:30:21;;;;;;;;;;;;;;;14.57;57.60;98800.75;4945558;28;6977;-87
2023/03/31 04:32:53;;;;;;;;;;;;;;;14.59;57.35;98793.03;4945285;28;6999;-87
2023/03/31 04:35:21;;;;;;;;;;;;;;;14.61;57.40;98781.00;4924249;28;8445;-88
2023/03/31 04:37:49;;;;;;;;;;;;;;;14.63;57.46;98783.59;4944112;28;6966;-88
2023/03/31 04:40:16;;;;;;;;;;;;;;;14.66;57.17;98778.44;4947444;28;6918;-87
2023/03/31 04:42:43;;;;;;;;;;;;;;;14.69;56.54;98788.81;4928599;28;6981;-88
2023/03/31 04:45:11;;;;;;;;;;;;;;;14.77;56.32;98776.81;4950546;28;6972;-88
2023/03/31 04:47:37;;;;;;;;;;;;;;;14.85;56.80;98763.97;4942555;28;6957;-87
2023/03/31 04:50:03;;;;;;;;;;;;;;;14.85;56.07;98757.09;4942878;28;7136;-88
2023/03/31 04:52:29;;;;;;;;;;;;;;;14.84;55.99;98755.38;4952671;28;7218;-87
2023/03/31 04:54:55;;;;;;;;;;;;;;;14.79;56.30;98746.75;4942997;28;6772;-87
2023/03/31 04:57:20;;;;;;;;;;;;;;;14.70;55.83;98751.84;4928493;28;6940;-87
2023/03/31 04:59:46;;;;;;;;;;;;;;;14.58;56.06;98740.63;4927871;28;7036;-87
2023/03/31 05:02:12;;;;;;;;;;;;;;;14.50;56.72;98728.53;4931956;28;7346;-87
2023/03/31 05:04:37;;;;;;;;;;;;;;;14.42;56.63;98725.91;4926757;28;8446;-88
2023/03/31 05:07:03;;;;;;;;;;;;;;;14.35;57.14;98721.56;4924278;28;7152;-87
2023/03/31 05:09:29;;;;;;;;;;;;;;;14.33;57.50;98713.81;4929686;28;8372;-87
2023/03/31 05:11:56;;;;;;;;;;;;;;;14.30;57.84;98696.66;4950451;28;6956;-86
2023/03/31 05:14:22;;;;;;;;;;;;;;;14.36;57.89;98703.56;4924245;28;8449;-86
2023/03/31 05:16:47;;;;;;;;;;;;;;;14.40;57.75;98694.97;4947173;28;6946;-87
2023/03/31 05:19:13;;;;;;;;;;;;;;;14.44;57.70;98695.84;4942440;28;8402;-87
2023/03/31 05:21:39;;;;;;;;;;;;;;;14.41;57.65;98667.50;4935102;28;8404;-86
2023/03/31 05:24:05;;;;;;;;;;;;;;;14.36;57.67;98671.75;4946921;28;7367;-87
2023/03/31 05:26:30;;;;;;;;;;;;;;;14.29;57.52;98671.75;4954748;28;8395;-87
2023/03/31 05:28:56;;;;;;;;;;;;;;;14.25;57.96;98670.00;4946878;28;6860;-88
2023/03/31 05:31:22;;;;;;;;;;;;;;;14.21;58.09;98665.69;4938316;28;6845;-88
2023/03/31 05:33:48;;;;;;;;;;;;;;;14.18;58.70;98675.94;4941876;28;7503;-87
2023/03/31 05:36:16;;;;;;;;;;;;;;;14.18;58.78;98682.84;4936565;28;8453;-87
2023/03/31 05:38:42;;;;;;;;;;;;;;;14.16;58.55;98670.81;4939434;28;8449;-86
2023/03/31 05:41:09;;;;;;;;;;;;;;;14.19;58.49;98653.63;4948136;28;7536;-87
2023/03/31 05:43:38;;;;;;;;;;;;;;;14.22;58.76;98654.53;4933276;28;7496;-87
2023/03/31 05:46:05;;;;;;;;;;;;;;;14.29;58.15;98660.56;4948152;28;7154;-87
2023/03/31 05:48:31;;;;;;;;;;;;;;;14.33;58.32;98657.13;4926475;28;7166;-87
2023/03/31 05:50:58;;;;;;;;;;;;;;;14.38;58.02;98652.00;4935976;28;7326;-87
2023/03/31 05:53:25;;;;;;;;;;;;;;;14.40;58.09;98653.72;4951857;28;6938;-86
2023/03/31 05:55:57;;;;;;;;;;;;;;;14.41;57.64;98645.16;4951063;28;7314;-86
2023/03/31 05:58:27;;;;;;;;;;;;;;;14.45;57.63;98651.19;4957867;28;7220;-86
2023/03/31 06:01:10;;;;;;;;;;;;;;;14.48;57.78;98645.19;4954356;28;7182;-86
2023/03/31 06:03:40;;;;;;;;;;;;;;;14.52;57.33;98647.78;4950836;28;7285;-83
2023/03/31 06:06:08;;;;;;;;;;;;;;;14.55;57.08;98647.78;4942375;28;8664;-87
2023/03/31 06:08:35;;;;;;;;;;;;;;;14.62;56.94;98632.34;4941134;28;6993;-87
2023/03/31 06:11:10;;;;;;;;;;;;;;;14.65;56.46;98647.81;4955916;28;6966;-87
2023/03/31 06:13:38;;;;;;;;;;;;;;;14.68;57.31;98638.38;4939377;28;8513;-87
2023/03/31 06:16:05;;;;;;;;;;;;;;;14.72;57.03;98639.25;4948656;28;8460;-87
2023/03/31 06:18:34;;;;;;;;;;;;;;;14.76;56.93;98629.84;4923603;28;8457;-87
2023/03/31 06:21:01;;;;;;;;;;;;;;;14.81;57.00;98623.84;4932287;28;7171;-87
2023/03/31 06:23:27;;;;;;;;;;;;;;;14.90;56.87;98635.03;4950713;28;7295;-87
2023/03/31 06:25:53;;;;;;;;;;;;;;;14.99;56.10;98623.00;4926968;28;6835;-87
2023/03/31 06:28:20;;;;;;;;;;;;;;;15.09;56.33;98623.88;4930520;28;7131;-87
2023/03/31 06:30:46;;;;;;;;;;;;;;;15.18;55.86;98617.00;4933179;28;7152;-85
2023/03/31 06:33:12;;;;;;;;;;;;;;;15.26;55.72;98617.88;4950637;28;7735;-85
2023/03/31 06:35:40;;;;;;;;;;;;;;;15.40;56.44;98600.66;4944539;28;7406;-86
2023/03/31 06:38:06;;;;;;;;;;;;;;;15.55;55.74;98606.69;4937320;28;7036;-87
2023/03/31 06:40:32;;;;;;;;;;;;;;;15.66;54.96;98599.78;4937925;28;7140;-88
2023/03/31 06:42:58;;;;;;;;;;;;;;;15.75;55.24;98605.78;4937749;28;7166;-88
2023/03/31 06:45:24;;;;;;;;;;;;;;;15.85;55.01;98602.31;4951372;28;7203;-87
2023/03/31 06:47:50;;;;;;;;;;;;;;;15.92;54.88;98596.28;4935850;28;7124;-88
2023/03/31 06:50:16;;;;;;;;;;;;;;;16.01;54.78;98600.59;4933405;28;6963;-87
2023/03/31 06:52:41;;;;;;;;;;;;;;;16.11;54.18;98604.00;4949273;28;6788;-88
2023/03/31 06:55:08;;;;;;;;;;;;;;;16.20;53.98;98592.78;4937968;28;6935;-87
2023/03/31 06:57:35;;;;;;;;;;;;;;;16.29;53.91;98589.28;4937433;28;8597;-88
2023/03/31 07:00:02;;;;;;;;;;;;;;;16.34;53.14;98582.38;4939604;28;7391;-86
2023/03/31 07:02:28;;;;;;;;;;;;;;;16.38;53.58;98586.66;4943281;28;6946;-85
2023/03/31 07:04:54;;;;;;;;;;;;;;;16.42;53.40;98585.78;4950436;28;7012;-85
2023/03/31 07:07:19;;;;;;;;;;;;;;;16.38;53.01;98568.56;4951097;28;6942;-86
2023/03/31 07:09:45;;;;;;;;;;;;;;;16.30;52.93;98599.63;4934089;28;6943;-87
2023/03/31 07:12:10;;;;;;;;;;;;;;;16.21;53.49;98594.50;4942914;28;6784;-87
2023/03/31 07:14:36;;;;;;;;;;;;;;;16.09;54.04;98564.38;4932384;28;8734;-88
2023/03/31 07:17:02;;;;;;;;;;;;;;;15.96;54.34;98592.84;4942161;28;6776;-87
2023/03/31 07:19:28;;;;;;;;;;;;;;;15.91;54.32;98573.06;4942337;28;8639;-87
2023/03/31 07:21:55;;;;;;;;;;;;;;;15.92;54.71;98592.88;4954284;28;7101;-86
2023/03/31 07:24:21;;;;;;;;;;;;;;;15.93;54.93;98587.72;4951258;28;8451;-88
2023/03/31 07:26:47;;;;;;;;;;;;;;;15.95;54.91;98583.38;4962296;28;6973;-88
2023/03/31 07:29:13;;;;;;;;;;;;;;;15.92;54.70;98578.22;4929840;29;6939;-88
2023/03/31 07:31:39;;;;;;;;;;;;;;;15.89;54.51;98572.19;4942999;28;8452;-88
2023/03/31 07:34:05;;;;;;;;;;;;;;;15.78;55.00;98580.78;4937974;28;7141;-88
2023/03/31 07:36:30;;;;;;;;;;;;;;;15.72;55.12;98573.09;4924677;29;6956;-88
2023/03/31 07:38:57;;;;;;;;;;;;;;;15.71;54.99;98580.81;4952154;28;8355;-88
2023/03/31 07:41:23;;;;;;;;;;;;;;;15.76;55.48;98584.28;4940675;28;7179;-87
2023/03/31 07:43:50;;;;;;;;;;;;;;;15.85;55.66;98589.41;4933479;28;8426;-88
2023/03/31 07:46:26;;;;;;;;;;;;;;;15.96;55.11;98567.03;4953896;28;7204;-88
2023/03/31 07:48:53;;;;;;;;;;;;;;;16.10;55.02;98572.13;4940778;28;7249;-88
2023/03/31 07:51:24;;;;;;;;;;;;;;;16.21;54.95;98578.97;4937520;28;7258;-88
2023/03/31 07:53:51;;;;;;;;;;;;;;;16.36;54.29;98573.72;4965301;28;9278;-89
2023/03/31 07:56:20;;;;;;;;;;;;;;;16.51;54.50;98567.66;4948243;28;7198;-87
2023/03/31 07:58:46;;;;;;;;;;;;;;;16.61;53.83;98570.16;4925126;28;7177;-88
2023/03/31 08:01:16;;;;;;;;;;;;;;;16.64;53.73;98570.16;4952717;28;6950;-87
2023/03/31 08:03:43;;;;;;;;;;;;;;;16.68;53.24;98558.06;4938964;28;7234;-87
2023/03/31 08:06:09;;;;;;;;;;;;;;;16.73;53.63;98567.50;4926723;28;7036;-89
2023/03/31 08:08:37;;;;;;;;;;;;;;;16.79;52.77;98553.66;4952839;28;7142;-88
2023/03/31 08:11:03;;;;;;;;;;;;;;;16.90;53.14;98556.16;4933381;28;7171;-88
2023/03/31 08:13:29;;;;;;;;;;;;;;;17.02;52.83;98555.25;4943634;28;8891;-88
2023/03/31 08:15:55;;;;;;;;;;;;;;;17.16;52.54;98547.38;4929237;28;7183;-88
2023/03/31 08:18:21;;;;;;;;;;;;;;;17.28;52.16;98555.03;4936014;28;7278;-88
2023/03/31 08:20:48;;;;;;;;;;;;;;;17.42;51.69;98541.13;4972512;28;7341;-88
2023/03/31 08:23:15;;;;;;;;;;;;;;;17.61;51.32;98540.06;4954120;28;7004;-87
2023/03/31 08:25:41;;;;;;;;;;;;;;;17.84;51.04;98546.69;4958445;28;7121;-88
2023/03/31 08:28:09;;;;;;;;;;;;;;;18.08;50.71;98546.47;4935350;28;6955;-88
2023/03/31 08:30:37;;;;;;;;;;;;;;;18.29;49.66;98543.59;4933526;28;8501;-87
2023/03/31 08:33:03;;;;;;;;;;;;;;;18.43;49.52;98538.22;4931251;28;7025;-87
2023/03/31 08:35:29;;;;;;;;;;;;;;;18.57;49.32;98544.97;4967261;28;7193;-87
2023/03/31 08:37:55;;;;;;;;;;;;;;;18.66;48.65;98516.28;4925787;28;8651;-89
2023/03/31 08:40:27;;;;;;;;;;;;;;;18.67;48.42;98538.75;4942196;28;6984;-88
2023/03/31 08:43:17;;;;;;;;;;;;;;;18.73;48.30;98524.81;4939608;28;7182;-89
2023/03/31 08:45:46;;;;;;;;;;;;;;;18.83;48.18;98529.00;4937627;28;7075;-89
2023/03/31 08:48:44;;;;;;;;;;;;;;;18.90;47.30;98521.97;4941169;28;7270;-88
2023/03/31 08:51:59;;;;;;;;;;;;;;;18.96;46.72;98516.69;4940881;28;6979;-91
2023/03/31 08:54:50;;;;;;;;;;;;;;;18.95;46.34;98509.78;4945684;28;6996;-91
2023/03/31 08:57:58;;;;;;;;;;;;;;;18.96;46.63;98527.06;4934349;28;7072;-90
2023/03/31 09:00:25;;;;;;;;;;;;;;;18.97;46.15;98518.38;4936090;28;6921;-82
2023/03/31 09:03:25;;;;;;;;;;;;;;;18.94;46.47;98522.78;4954782;28;6839;-83
2023/03/31 09:06:06;;;;;;;;;;;;;;;18.85;46.31;98519.44;4950512;28;6884;-81
2023/03/31 09:08:41;;;;;;;;;;;;;;;18.74;46.00;98517.03;4945427;28;6987;-81
2023/03/31 09:11:39;;;;;;;;;;;;;;;18.57;46.56;98521.63;4932633;28;7071;-82
2023/03/31 09:14:42;;;;;;;;;;;;;;;18.38;46.32;98527.06;4930979;28;7246;-82
2023/03/31 09:17:37;;;;;;;;;;;;;;;18.38;47.33;98516.69;4949779;28;7233;-82
2023/03/31 09:20:29;;;;;;;;;;;;;;;18.56;46.87;98520.75;4964147;28;7424;-81
2023/03/31 09:23:29;;;;;;;;;;;;;;;18.80;47.18;98520.41;4953796;28;8486;-82
2023/03/31 09:25:58;;;;;;;;;;;;;;;18.96;46.94;98513.22;4961578;28;6800;-82
2023/03/31 09:28:52;;;;;;;;;;;;;;;19.04;46.53;98506.19;4960072;28;6972;-81
2023/03/31 09:31:21;;;;;;;;;;;;;;;19.05;45.66;98510.50;4928420;28;8793;-82
2023/03/31 09:33:50;;;;;;;;;;;;;;;19.06;45.65;98501.81;4952403;28;8536;-82
2023/03/31 09:36:21;;;;;;;;;;;;;;;19.08;45.30;98505.28;4945017;28;6808;-82
2023/03/31 09:38:47;;;;;;;;;;;;;;;19.16;45.16;98502.53;4956358;28;8486;-82
2023/03/31 09:41:16;;;;;;;;;;;;;;;19.22;45.37;98512.81;4949457;28;6936;-82
2023/03/31 09:43:42;;;;;;;;;;;;;;;19.31;44.08;98493.63;4946995;28;7216;-82
2023/03/31 09:46:33;;;;;;;;;;;;;;;19.40;44.50;98501.25;4944857;28;7394;-83
2023/03/31 09:49:13;;;;;;;;;;;;;;;19.62;44.08;98481.78;4927506;28;7033;-82
2023/03/31 09:51:47;;;;;;;;;;;;;;;19.83;43.40;98491.75;4946785;28;6832;-83
2023/03/31 09:54:33;;;;;;;;;;;;;;;19.98;43.14;98477.59;4940350;28;8826;-83
2023/03/31 09:56:59;;;;;;;;;;;;;;;20.04;42.08;98483.53;4964333;28;6811;-82
2023/03/31 09:59:34;;;;;;;;;;;;;;;20.02;41.82;98468.00;4940304;28;8546;-82
2023/03/31 10:02:15;;;;;;;;;;;;;;;19.93;41.51;98481.16;4942862;28;6852;-82
2023/03/31 10:04:45;;;;;;;;;;;;;;;19.67;42.14;98487.75;4947243;28;7126;-83
2023/03/31 10:07:19;;;;;;;;;;;;;;;19.35;42.73;98499.63;4961944;28;7005;-84
2023/03/31 10:09:45;;;;;;;;;;;;;;;18.86;44.07;98507.34;4953715;28;7492;-86
2023/03/31 10:12:23;;;;;;;;;;;;;;;18.29;44.24;98537.56;4948759;28;7806;-83
2023/03/31 10:14:52;;;;;;;;;;;;;;;17.70;45.48;98533.06;4946877;28;6808;-82
2023/03/31 10:17:26;;;;;;;;;;;;;;;17.24;47.27;98524.88;4958447;28;6789;-82
2023/03/31 10:19:57;;;;;;;;;;;;;;;16.96;48.26;98543.19;4949022;28;7261;-82
2023/03/31 10:22:22;;;;;;;;;;;;;;;16.75;49.68;98536.44;4940341;28;6995;-83
2023/03/31 10:24:51;;;;;;;;;;;;;;;16.52;50.05;98525.41;4950430;28;8563;-84
2023/03/31 10:27:28;;;;;;;;;;;;;;;16.43;50.86;98516.81;4965860;28;6828;-84
2023/03/31 10:29:58;;;;;;;;;;;;;;;16.38;51.46;98528.06;4947016;28;7054;-83
2023/03/31 10:32:28;;;;;;;;;;;;;;;16.40;51.14;98525.44;4928830;28;8429;-84
2023/03/31 10:34:57;;;;;;;;;;;;;;;16.44;51.14;98514.25;4952137;28;6804;-82
2023/03/31 10:37:27;;;;;;;;;;;;;;;16.48;51.19;98517.66;4943475;28;8707;-81
2023/03/31 10:40:14;;;;;;;;;;;;;;;16.60;50.83;98527.06;4928811;28;8455;-84
2023/03/31 10:42:45;;;;;;;;;;;;;;;16.63;51.35;98509.78;4942567;28;8222;-82
2023/03/31 10:45:25;;;;;;;;;;;;;;;16.68;50.93;98496.81;4945853;28;6968;-82
2023/03/31 10:48:00;;;;;;;;;;;;;;;16.77;51.78;98504.53;4940416;28;8805;-82
2023/03/31 10:50:33;;;;;;;;;;;;;;;16.98;51.31;98505.22;4944268;28;6796;-83
2023/03/31 10:53:25;;;;;;;;;;;;;;;17.16;51.98;98485.25;4947912;28;6816;-82
2023/03/31 10:56:34;;;;;;;;;;;;;;;17.38;51.39;98479.84;4946077;28;7209;-83
2023/03/31 10:59:32;;;;;;;;;;;;;;;17.63;51.64;98468.34;4943391;28;8776;-83
2023/03/31 11:02:13;;;;;;;;;;;;;;;17.87;50.53;98468.06;4935849;28;6840;-83
2023/03/31 11:04:59;;;;;;;;;;;;;;;18.04;50.04;98460.97;4947549;28;7039;-82
2023/03/31 11:08:14;;;;;;;;;;;;;;;18.10;49.73;98451.38;4946487;28;8461;-85
2023/03/31 11:11:32;;;;;;;;;;;;;;;18.08;50.14;98448.84;4943224;28;8490;-82
2023/03/31 11:14:36;;;;;;;;;;;;;;;18.26;49.94;98437.34;4941752;28;8289;-83
2023/03/31 11:17:35;;;;;;;;;;;;;;;18.59;50.27;98450.69;4954698;28;8434;-83
2023/03/31 11:20:11;;;;;;;;;;;;;;;18.94;49.84;98442.31;4926969;28;7354;-84
2023/03/31 11:22:55;;;;;;;;;;;;;;;19.35;49.30;98434.69;4949163;28;8517;-83
2023/03/31 11:25:27;;;;;;;;;;;;;;;19.79;47.85;98432.06;4943751;28;8787;-82
2023/03/31 11:28:34;;;;;;;;;;;;;;;20.06;47.09;98411.59;4928580;28;8843;-82
2023/03/31 11:31:46;;;;;;;;;;;;;;;20.04;45.63;98427.22;4926522;28;8792;-83
2023/03/31 11:34:54;;;;;;;;;;;;;;;19.94;44.42;98415.31;4941856;28;7084;-83
2023/03/31 11:37:51;;;;;;;;;;;;;;;19.84;44.46;98436.28;4945081;28;8459;-83
2023/03/31 11:40:35;;;;;;;;;;;;;;;19.70;45.18;98441.75;4933905;28;6900;-83
2023/03/31 11:43:14;;;;;;;;;;;;;;;19.56;45.86;98447.25;4951161;28;7170;-82
2023/03/31 11:45:51;;;;;;;;;;;;;;;19.55;45.23;98444.66;4943282;28;6849;-83
2023/03/31 11:48:58;;;;;;;;;;;;;;;19.53;44.49;98438.66;4937268;28;7113;-83
2023/03/31 11:51:46;;;;;;;;;;;;;;;19.59;44.64;98422.94;4948904;28;7230;-82
2023/03/31 11:54:24;;;;;;;;;;;;;;;19.73;44.02;98417.47;4944797;28;8886;-82
2023/03/31 11:56:55;;;;;;;;;;;;;;;19.99;43.63;98418.69;4940514;28;7021;-81
2023/03/31 11:59:30;;;;;;;;;;;;;;;20.27;43.19;98407.63;4947805;28;7232;-81
2023/03/31 12:02:05;;;;;;;;;;;;;;;20.58;42.48;98419.91;4950419;28;7233;-80
2023/03/31 12:04:46;;;;;;;;;;;;;;;20.85;42.09;98409.69;4923360;28;8901;-81
2023/03/31 12:07:15;;;;;;;;;;;;;;;20.98;41.07;98418.03;4945928;28;8465;-82
2023/03/31 12:10:17;;;;;;;;;;;;;;;21.07;41.15;98410.00;4945723;28;7000;-84
2023/03/31 12:13:00;;;;;;;;;;;;;;;20.97;40.33;98397.28;4957410;28;8451;-85
2023/03/31 12:15:39;;;;;;;;;;;;;;;20.73;40.75;98399.56;4957866;28;8656;-85
2023/03/31 12:18:25;;;;;;;;;;;;;;;20.36;41.32;98398.75;4958976;28;7370;-86
2023/03/31 12:20:58;;;;;;;;;;;;;;;20.12;41.87;98390.63;4945918;28;6984;-85
2023/03/31 12:23:32;;;;;;;;;;;;;;;19.87;42.25;98413.69;4934041;28;7031;-85
2023/03/31 12:26:27;;;;;;;;;;;;;;;19.57;42.71;98396.16;4923377;28;8846;-85
2023/03/31 12:29:02;;;;;;;;;;;;;;;19.20;43.75;98397.72;4933825;28;7280;-85
2023/03/31 12:31:31;;;;;;;;;;;;;;;19.06;43.66;98397.97;4942051;28;6851;-85
2023/03/31 12:34:11;;;;;;;;;;;;;;;19.19;44.27;98387.38;4942943;28;6963;-85
2023/03/31 12:37:28;;;;;;;;;;;;;;;19.48;43.73;98394.56;4932135;28;8785;-85
2023/03/31 12:40:06;;;;;;;;;;;;;;;19.87;42.91;98393.78;4936088;28;8727;-85
2023/03/31 12:42:39;;;;;;;;;;;;;;;20.37;41.98;98384.84;4946512;28;7001;-85
2023/03/31 12:45:26;;;;;;;;;;;;;;;20.97;41.20;98381.66;4950597;28;8514;-85
2023/03/31 12:48:35;;;;;;;;;;;;;;;21.41;40.20;98384.75;4933680;28;8496;-85
2023/03/31 12:51:15;;;;;;;;;;;;;;;21.68;39.28;98378.81;4947588;28;6832;-86
2023/03/31 12:54:34;;;;;;;;;;;;;;;21.88;39.11;98362.56;4947784;28;6988;-85
2023/03/31 12:57:00;;;;;;;;;;;;;;;22.10;38.61;98359.28;4947351;28;6983;-85
2023/03/31 12:59:36;;;;;;;;;;;;;;;22.27;37.56;98345.72;4946849;28;8909;-85
2023/03/31 13:02:20;;;;;;;;;;;;;;;22.33;37.85;98351.56;4936772;28;8467;-86
2023/03/31 13:04:48;;;;;;;;;;;;;;;22.31;37.37;98352.50;4923318;28;8527;-85
2023/03/31 13:07:35;;;;;;;;;;;;;;;22.25;37.93;98357.91;4930238;28;8540;-85
2023/03/31 13:10:12;;;;;;;;;;;;;;;22.15;37.37;98346.94;4941239;28;7997;-85
2023/03/31 13:12:39;;;;;;;;;;;;;;;22.00;37.58;98356.97;4946010;28;7493;-85
2023/03/31 13:15:13;;;;;;;;;;;;;;;21.81;37.76;98342.78;4933552;28;7066;-85
2023/03/31 13:17:57;;;;;;;;;;;;;;;21.60;37.73;98337.31;4931072;28;9093;-85
2023/03/31 13:20:36;;;;;;;;;;;;;;;21.30;37.88;98343.41;4946636;28;6887;-86
2023/03/31 13:23:10;;;;;;;;;;;;;;;21.01;37.76;98336.41;4947346;28;7211;-83
2023/03/31 13:25:51;;;;;;;;;;;;;;;20.70;37.85;98339.81;4947621;28;6792;-87
2023/03/31 13:28:20;;;;;;;;;;;;;;;20.42;38.03;98340.50;4946569;28;7004;-86
2023/03/31 13:30:56;;;;;;;;;;;;;;;20.30;38.37;98333.88;4940595;28;8360;-86
2023/03/31 13:33:56;;;;;;;;;;;;;;;20.32;38.82;98321.66;4947277;28;8769;-86
2023/03/31 13:36:30;;;;;;;;;;;;;;;20.39;39.18;98326.69;4947509;28;7248;-86
2023/03/31 13:40:00;;;;;;;;;;;;;;;20.50;39.11;98315.16;4951377;28;7201;-86
2023/03/31 13:43:05;;;;;;;;;;;;;;;20.54;38.48;98312.44;4951323;28;8434;-86